sensor_id;sensor_type;location;lat;lon;timestamp;temperature;humidity
66861;SHT31;53770;42.334;23.550;2022-07-06T00:01:41;17.81;90.35
66861;SHT31;53770;42.334;23.550;2022-07-06T00:04:08;17.71;90.06
66861;SHT31;53770;42.334;23.550;2022-07-06T00:06:36;17.62;90.13
66861;SHT31;53770;42.334;23.550;2022-07-06T00:09:04;17.52;89.64
66861;SHT31;53770;42.334;23.550;2022-07-06T00:11:31;17.39;89.09
66861;SHT31;53770;42.334;23.550;2022-07-06T00:13:57;17.28;89.21
66861;SHT31;53770;42.334;23.550;2022-07-06T00:16:24;17.20;89.66
66861;SHT31;53770;42.334;23.550;2022-07-06T00:18:51;17.16;89.52
66861;SHT31;53770;42.334;23.550;2022-07-06T00:21:18;17.16;89.60
66861;SHT31;53770;42.334;23.550;2022-07-06T00:23:46;17.13;89.02
66861;SHT31;53770;42.334;23.550;2022-07-06T00:26:13;17.10;89.39
66861;SHT31;53770;42.334;23.550;2022-07-06T00:28:40;17.11;89.94
66861;SHT31;53770;42.334;23.550;2022-07-06T00:31:07;17.18;89.81
66861;SHT31;53770;42.334;23.550;2022-07-06T00:33:34;17.18;89.80
66861;SHT31;53770;42.334;23.550;2022-07-06T00:36:00;17.32;90.49
66861;SHT31;53770;42.334;23.550;2022-07-06T00:38:27;17.38;90.47
66861;SHT31;53770;42.334;23.550;2022-07-06T00:40:55;17.46;90.61
66861;SHT31;53770;42.334;23.550;2022-07-06T00:43:22;17.54;90.64
66861;SHT31;53770;42.334;23.550;2022-07-06T00:45:49;17.56;90.77
66861;SHT31;53770;42.334;23.550;2022-07-06T00:48:16;17.59;90.83
66861;SHT31;53770;42.334;23.550;2022-07-06T00:50:43;17.55;90.44
66861;SHT31;53770;42.334;23.550;2022-07-06T00:53:10;17.52;90.54
66861;SHT31;53770;42.334;23.550;2022-07-06T00:55:38;17.46;90.28
66861;SHT31;53770;42.334;23.550;2022-07-06T00:58:08;17.42;90.15
66861;SHT31;53770;42.334;23.550;2022-07-06T01:00:36;17.25;89.57
66861;SHT31;53770;42.334;23.550;2022-07-06T01:03:04;17.07;89.84
66861;SHT31;53770;42.334;23.550;2022-07-06T01:05:30;17.02;90.20
66861;SHT31;53770;42.334;23.550;2022-07-06T01:07:57;17.02;90.56
66861;SHT31;53770;42.334;23.550;2022-07-06T01:10:26;16.99;90.51
66861;SHT31;53770;42.334;23.550;2022-07-06T01:12:53;17.02;90.57
66861;SHT31;53770;42.334;23.550;2022-07-06T01:15:23;17.04;90.61
66861;SHT31;53770;42.334;23.550;2022-07-06T01:17:51;17.03;90.60
66861;SHT31;53770;42.334;23.550;2022-07-06T01:20:21;17.04;90.73
66861;SHT31;53770;42.334;23.550;2022-07-06T01:22:49;17.03;90.77
66861;SHT31;53770;42.334;23.550;2022-07-06T01:25:17;17.07;91.09
66861;SHT31;53770;42.334;23.550;2022-07-06T01:27:44;17.16;91.18
66861;SHT31;53770;42.334;23.550;2022-07-06T01:30:13;17.25;91.26
66861;SHT31;53770;42.334;23.550;2022-07-06T01:32:41;17.35;91.11
66861;SHT31;53770;42.334;23.550;2022-07-06T01:35:09;17.37;91.02
66861;SHT31;53770;42.334;23.550;2022-07-06T01:37:38;17.45;91.01
66861;SHT31;53770;42.334;23.550;2022-07-06T01:40:07;17.51;91.08
66861;SHT31;53770;42.334;23.550;2022-07-06T01:42:34;17.52;91.09
66861;SHT31;53770;42.334;23.550;2022-07-06T01:45:02;17.61;91.09
66861;SHT31;53770;42.334;23.550;2022-07-06T01:47:29;17.61;90.87
66861;SHT31;53770;42.334;23.550;2022-07-06T01:49:58;17.66;90.91
66861;SHT31;53770;42.334;23.550;2022-07-06T01:52:26;17.73;90.73
66861;SHT31;53770;42.334;23.550;2022-07-06T01:54:54;17.75;90.67
66861;SHT31;53770;42.334;23.550;2022-07-06T01:57:21;17.58;89.62
66861;SHT31;53770;42.334;23.550;2022-07-06T01:59:48;17.49;89.30
66861;SHT31;53770;42.334;23.550;2022-07-06T02:02:14;17.46;89.73
66861;SHT31;53770;42.334;23.550;2022-07-06T02:04:42;17.62;90.19
66861;SHT31;53770;42.334;23.550;2022-07-06T02:07:09;17.55;89.22
66861;SHT31;53770;42.334;23.550;2022-07-06T02:09:36;17.65;89.58
66861;SHT31;53770;42.334;23.550;2022-07-06T02:12:05;17.75;90.07
66861;SHT31;53770;42.334;23.550;2022-07-06T02:14:32;17.86;90.15
66861;SHT31;53770;42.334;23.550;2022-07-06T02:16:58;17.78;89.81
66861;SHT31;53770;42.334;23.550;2022-07-06T02:19:25;17.75;90.04
66861;SHT31;53770;42.334;23.550;2022-07-06T02:21:52;17.79;90.15
66861;SHT31;53770;42.334;23.550;2022-07-06T02:24:19;17.78;89.90
66861;SHT31;53770;42.334;23.550;2022-07-06T02:26:45;17.83;90.11
66861;SHT31;53770;42.334;23.550;2022-07-06T02:29:13;17.89;90.33
66861;SHT31;53770;42.334;23.550;2022-07-06T02:31:40;17.99;90.48
66861;SHT31;53770;42.334;23.550;2022-07-06T02:34:07;17.99;90.14
66861;SHT31;53770;42.334;23.550;2022-07-06T02:36:34;17.86;89.98
66861;SHT31;53770;42.334;23.550;2022-07-06T02:39:00;17.78;90.03
66861;SHT31;53770;42.334;23.550;2022-07-06T02:41:27;17.72;89.72
66861;SHT31;53770;42.334;23.550;2022-07-06T02:43:54;17.68;90.03
66861;SHT31;53770;42.334;23.550;2022-07-06T02:46:22;17.62;90.17
66861;SHT31;53770;42.334;23.550;2022-07-06T02:48:49;17.49;89.71
66861;SHT31;53770;42.334;23.550;2022-07-06T02:51:15;17.34;89.69
66861;SHT31;53770;42.334;23.550;2022-07-06T02:53:42;17.25;90.00
66861;SHT31;53770;42.334;23.550;2022-07-06T02:56:09;17.25;90.31
66861;SHT31;53770;42.334;23.550;2022-07-06T02:58:36;17.21;90.10
66861;SHT31;53770;42.334;23.550;2022-07-06T03:01:03;17.17;90.08
66861;SHT31;53770;42.334;23.550;2022-07-06T03:03:31;17.14;89.90
66861;SHT31;53770;42.334;23.550;2022-07-06T03:05:59;17.10;90.13
66861;SHT31;53770;42.334;23.550;2022-07-06T03:08:26;17.10;90.18
66861;SHT31;53770;42.334;23.550;2022-07-06T03:10:53;17.10;90.11
66861;SHT31;53770;42.334;23.550;2022-07-06T03:13:19;17.11;90.30
66861;SHT31;53770;42.334;23.550;2022-07-06T03:15:46;17.06;89.99
66861;SHT31;53770;42.334;23.550;2022-07-06T03:18:13;17.02;90.08
66861;SHT31;53770;42.334;23.550;2022-07-06T03:20:41;16.99;90.03
66861;SHT31;53770;42.334;23.550;2022-07-06T03:23:08;16.96;89.69
66861;SHT31;53770;42.334;23.550;2022-07-06T03:25:35;16.96;89.99
66861;SHT31;53770;42.334;23.550;2022-07-06T03:28:01;16.87;89.87
66861;SHT31;53770;42.334;23.550;2022-07-06T03:30:28;16.90;89.67
66861;SHT31;53770;42.334;23.550;2022-07-06T03:32:55;16.80;89.35
66861;SHT31;53770;42.334;23.550;2022-07-06T03:35:22;16.75;89.37
66861;SHT31;53770;42.334;23.550;2022-07-06T03:37:50;16.77;89.51
66861;SHT31;53770;42.334;23.550;2022-07-06T03:40:17;16.70;89.19
66861;SHT31;53770;42.334;23.550;2022-07-06T03:42:44;16.68;89.07
66861;SHT31;53770;42.334;23.550;2022-07-06T03:45:11;16.69;89.44
66861;SHT31;53770;42.334;23.550;2022-07-06T03:47:37;16.69;89.49
66861;SHT31;53770;42.334;23.550;2022-07-06T03:50:05;16.72;89.66
66861;SHT31;53770;42.334;23.550;2022-07-06T03:52:33;16.72;89.72
66861;SHT31;53770;42.334;23.550;2022-07-06T03:55:02;16.72;89.28
66861;SHT31;53770;42.334;23.550;2022-07-06T03:57:29;16.68;89.09
66861;SHT31;53770;42.334;23.550;2022-07-06T03:59:55;16.68;89.41
66861;SHT31;53770;42.334;23.550;2022-07-06T04:02:22;16.79;89.90
66861;SHT31;53770;42.334;23.550;2022-07-06T04:04:49;16.89;90.15
66861;SHT31;53770;42.334;23.550;2022-07-06T04:07:16;17.06;90.32
66861;SHT31;53770;42.334;23.550;2022-07-06T04:09:42;17.24;90.33
66861;SHT31;53770;42.334;23.550;2022-07-06T04:12:11;17.42;90.54
66861;SHT31;53770;42.334;23.550;2022-07-06T04:14:37;17.51;90.23
66861;SHT31;53770;42.334;23.550;2022-07-06T04:17:04;17.41;90.00
66861;SHT31;53770;42.334;23.550;2022-07-06T04:19:45;17.25;89.71
66861;SHT31;53770;42.334;23.550;2022-07-06T04:22:12;17.21;89.83
66861;SHT31;53770;42.334;23.550;2022-07-06T04:24:38;17.16;89.89
66861;SHT31;53770;42.334;23.550;2022-07-06T04:27:05;17.08;89.50
66861;SHT31;53770;42.334;23.550;2022-07-06T04:29:33;17.04;89.78
66861;SHT31;53770;42.334;23.550;2022-07-06T04:32:00;16.97;89.40
66861;SHT31;53770;42.334;23.550;2022-07-06T04:34:27;16.94;89.39
66861;SHT31;53770;42.334;23.550;2022-07-06T04:36:54;16.94;89.42
66861;SHT31;53770;42.334;23.550;2022-07-06T04:39:20;16.99;89.58
66861;SHT31;53770;42.334;23.550;2022-07-06T04:41:47;17.04;89.55
66861;SHT31;53770;42.334;23.550;2022-07-06T04:44:14;17.10;89.85
66861;SHT31;53770;42.334;23.550;2022-07-06T04:46:42;17.18;89.63
66861;SHT31;53770;42.334;23.550;2022-07-06T04:49:09;17.21;89.50
66861;SHT31;53770;42.334;23.550;2022-07-06T04:51:35;17.27;89.52
66861;SHT31;53770;42.334;23.550;2022-07-06T04:54:02;17.32;89.57
66861;SHT31;53770;42.334;23.550;2022-07-06T04:56:30;17.42;89.63
66861;SHT31;53770;42.334;23.550;2022-07-06T04:58:57;17.41;89.39
66861;SHT31;53770;42.334;23.550;2022-07-06T05:01:24;17.48;89.57
66861;SHT31;53770;42.334;23.550;2022-07-06T05:03:52;17.56;89.49
66861;SHT31;53770;42.334;23.550;2022-07-06T05:06:19;17.68;89.42
66861;SHT31;53770;42.334;23.550;2022-07-06T05:08:46;17.78;89.41
66861;SHT31;53770;42.334;23.550;2022-07-06T05:11:13;17.94;89.63
66861;SHT31;53770;42.334;23.550;2022-07-06T05:13:39;18.17;88.60
66861;SHT31;53770;42.334;23.550;2022-07-06T05:16:07;18.48;89.28
66861;SHT31;53770;42.334;23.550;2022-07-06T05:18:33;18.68;89.08
66861;SHT31;53770;42.334;23.550;2022-07-06T05:21:01;18.82;88.54
66861;SHT31;53770;42.334;23.550;2022-07-06T05:23:28;18.96;86.72
66861;SHT31;53770;42.334;23.550;2022-07-06T05:25:55;19.07;85.01
66861;SHT31;53770;42.334;23.550;2022-07-06T05:28:22;19.20;83.57
66861;SHT31;53770;42.334;23.550;2022-07-06T05:30:49;19.38;83.93
66861;SHT31;53770;42.334;23.550;2022-07-06T05:33:16;19.57;86.34
66861;SHT31;53770;42.334;23.550;2022-07-06T05:35:43;19.74;87.03
66861;SHT31;53770;42.334;23.550;2022-07-06T05:38:11;19.83;87.23
66861;SHT31;53770;42.334;23.550;2022-07-06T05:40:37;19.88;86.95
66861;SHT31;53770;42.334;23.550;2022-07-06T05:43:04;19.86;85.15
66861;SHT31;53770;42.334;23.550;2022-07-06T05:45:31;19.77;83.91
66861;SHT31;53770;42.334;23.550;2022-07-06T05:47:58;19.62;84.37
66861;SHT31;53770;42.334;23.550;2022-07-06T05:50:42;19.47;84.41
66861;SHT31;53770;42.334;23.550;2022-07-06T05:53:11;19.41;84.06
66861;SHT31;53770;42.334;23.550;2022-07-06T05:55:37;19.26;80.69
66861;SHT31;53770;42.334;23.550;2022-07-06T05:58:04;19.26;83.31
66861;SHT31;53770;42.334;23.550;2022-07-06T06:00:31;19.23;82.13
66861;SHT31;53770;42.334;23.550;2022-07-06T06:02:58;19.31;84.23
66861;SHT31;53770;42.334;23.550;2022-07-06T06:05:25;19.38;83.70
66861;SHT31;53770;42.334;23.550;2022-07-06T06:07:52;19.47;84.17
66861;SHT31;53770;42.334;23.550;2022-07-06T06:10:21;19.51;82.52
66861;SHT31;53770;42.334;23.550;2022-07-06T06:12:48;19.57;83.28
66861;SHT31;53770;42.334;23.550;2022-07-06T06:15:16;19.60;81.82
66861;SHT31;53770;42.334;23.550;2022-07-06T06:17:43;19.65;81.75
66861;SHT31;53770;42.334;23.550;2022-07-06T06:20:11;19.71;81.45
66861;SHT31;53770;42.334;23.550;2022-07-06T06:22:46;19.83;81.89
66861;SHT31;53770;42.334;23.550;2022-07-06T06:25:14;19.95;83.44
66861;SHT31;53770;42.334;23.550;2022-07-06T06:27:42;20.04;83.25
66861;SHT31;53770;42.334;23.550;2022-07-06T06:30:09;20.06;80.73
66861;SHT31;53770;42.334;23.550;2022-07-06T06:32:36;20.12;81.05
66861;SHT31;53770;42.334;23.550;2022-07-06T06:35:03;20.25;82.61
66861;SHT31;53770;42.334;23.550;2022-07-06T06:37:31;20.37;81.27
66861;SHT31;53770;42.334;23.550;2022-07-06T06:39:58;20.47;79.25
66861;SHT31;53770;42.334;23.550;2022-07-06T06:42:25;20.63;78.60
66861;SHT31;53770;42.334;23.550;2022-07-06T06:44:53;20.87;77.81
66861;SHT31;53770;42.334;23.550;2022-07-06T06:47:20;21.21;79.28
66861;SHT31;53770;42.334;23.550;2022-07-06T06:49:47;21.40;78.14
66861;SHT31;53770;42.334;23.550;2022-07-06T06:52:13;21.70;79.57
66861;SHT31;53770;42.334;23.550;2022-07-06T06:54:40;21.91;78.86
66861;SHT31;53770;42.334;23.550;2022-07-06T06:57:07;21.94;75.13
66861;SHT31;53770;42.334;23.550;2022-07-06T06:59:34;22.00;73.84
66861;SHT31;53770;42.334;23.550;2022-07-06T07:02:02;22.09;75.70
66861;SHT31;53770;42.334;23.550;2022-07-06T07:04:29;22.16;75.29
66861;SHT31;53770;42.334;23.550;2022-07-06T07:06:56;22.04;74.33
66861;SHT31;53770;42.334;23.550;2022-07-06T07:09:23;22.01;74.87
66861;SHT31;53770;42.334;23.550;2022-07-06T07:11:50;22.07;75.72
66861;SHT31;53770;42.334;23.550;2022-07-06T07:14:17;21.98;72.70
66861;SHT31;53770;42.334;23.550;2022-07-06T07:16:44;22.00;74.65
66861;SHT31;53770;42.334;23.550;2022-07-06T07:19:12;22.01;74.24
66861;SHT31;53770;42.334;23.550;2022-07-06T07:21:39;22.07;74.71
66861;SHT31;53770;42.334;23.550;2022-07-06T07:24:06;22.05;74.00
66861;SHT31;53770;42.334;23.550;2022-07-06T07:26:33;22.04;72.90
66861;SHT31;53770;42.334;23.550;2022-07-06T07:29:00;22.01;72.81
66861;SHT31;53770;42.334;23.550;2022-07-06T07:31:27;21.95;72.11
66861;SHT31;53770;42.334;23.550;2022-07-06T07:33:54;21.86;72.90
66861;SHT31;53770;42.334;23.550;2022-07-06T07:36:24;21.83;73.46
66861;SHT31;53770;42.334;23.550;2022-07-06T07:38:51;21.83;72.46
66861;SHT31;53770;42.334;23.550;2022-07-06T07:41:18;22.00;73.77
66861;SHT31;53770;42.334;23.550;2022-07-06T07:43:45;22.14;72.32
66861;SHT31;53770;42.334;23.550;2022-07-06T07:46:11;22.29;71.00
66861;SHT31;53770;42.334;23.550;2022-07-06T07:48:38;22.45;71.77
66861;SHT31;53770;42.334;23.550;2022-07-06T07:51:05;22.62;70.72
66861;SHT31;53770;42.334;23.550;2022-07-06T07:53:33;22.80;70.22
66861;SHT31;53770;42.334;23.550;2022-07-06T07:56:00;23.03;68.46
66861;SHT31;53770;42.334;23.550;2022-07-06T07:58:27;23.31;67.61
66861;SHT31;53770;42.334;23.550;2022-07-06T08:00:54;23.69;67.75
66861;SHT31;53770;42.334;23.550;2022-07-06T08:03:20;24.03;66.09
66861;SHT31;53770;42.334;23.550;2022-07-06T08:05:47;24.14;63.17
66861;SHT31;53770;42.334;23.550;2022-07-06T08:08:14;24.13;64.30
66861;SHT31;53770;42.334;23.550;2022-07-06T08:10:42;24.16;61.99
66861;SHT31;53770;42.334;23.550;2022-07-06T08:13:10;24.17;61.58
66861;SHT31;53770;42.334;23.550;2022-07-06T08:15:37;24.31;61.01
66861;SHT31;53770;42.334;23.550;2022-07-06T08:18:04;24.51;61.46
66861;SHT31;53770;42.334;23.550;2022-07-06T08:20:30;24.76;62.98
66861;SHT31;53770;42.334;23.550;2022-07-06T08:22:57;25.05;62.27
66861;SHT31;53770;42.334;23.550;2022-07-06T08:25:24;25.38;61.23
66861;SHT31;53770;42.334;23.550;2022-07-06T08:27:52;25.60;60.67
66861;SHT31;53770;42.334;23.550;2022-07-06T08:30:19;25.64;60.09
66861;SHT31;53770;42.334;23.550;2022-07-06T08:32:46;25.55;60.48
66861;SHT31;53770;42.334;23.550;2022-07-06T08:35:12;25.50;60.13
66861;SHT31;53770;42.334;23.550;2022-07-06T08:37:39;25.44;58.77
66861;SHT31;53770;42.334;23.550;2022-07-06T08:40:07;25.16;59.80
66861;SHT31;53770;42.334;23.550;2022-07-06T08:42:35;25.16;59.04
66861;SHT31;53770;42.334;23.550;2022-07-06T08:45:06;25.12;60.44
66861;SHT31;53770;42.334;23.550;2022-07-06T08:47:35;25.20;59.44
66861;SHT31;53770;42.334;23.550;2022-07-06T08:50:03;25.34;59.62
66861;SHT31;53770;42.334;23.550;2022-07-06T08:52:30;25.53;59.30
66861;SHT31;53770;42.334;23.550;2022-07-06T08:54:57;25.74;59.44
66861;SHT31;53770;42.334;23.550;2022-07-06T08:57:25;26.03;58.04
66861;SHT31;53770;42.334;23.550;2022-07-06T08:59:52;25.93;52.85
66861;SHT31;53770;42.334;23.550;2022-07-06T09:02:23;25.61;54.48
66861;SHT31;53770;42.334;23.550;2022-07-06T09:04:53;25.45;56.74
66861;SHT31;53770;42.334;23.550;2022-07-06T09:07:21;25.57;53.61
66861;SHT31;53770;42.334;23.550;2022-07-06T09:09:49;25.53;55.07
66861;SHT31;53770;42.334;23.550;2022-07-06T09:12:18;25.80;57.08
66861;SHT31;53770;42.334;23.550;2022-07-06T09:14:45;26.19;57.27
66861;SHT31;53770;42.334;23.550;2022-07-06T09:17:12;26.46;53.89
66861;SHT31;53770;42.334;23.550;2022-07-06T09:19:40;26.56;55.05
66861;SHT31;53770;42.334;23.550;2022-07-06T09:22:07;26.67;54.47
66861;SHT31;53770;42.334;23.550;2022-07-06T09:24:39;26.77;54.83
66861;SHT31;53770;42.334;23.550;2022-07-06T09:27:15;27.05;53.08
66861;SHT31;53770;42.334;23.550;2022-07-06T09:29:42;27.47;52.68
66861;SHT31;53770;42.334;23.550;2022-07-06T09:32:09;27.87;50.53
66861;SHT31;53770;42.334;23.550;2022-07-06T09:34:44;28.14;52.34
66861;SHT31;53770;42.334;23.550;2022-07-06T09:37:12;28.29;49.09
66861;SHT31;53770;42.334;23.550;2022-07-06T09:39:39;28.39;49.18
66861;SHT31;53770;42.334;23.550;2022-07-06T09:42:07;28.57;48.28
66861;SHT31;53770;42.334;23.550;2022-07-06T09:44:35;28.96;48.22
66861;SHT31;53770;42.334;23.550;2022-07-06T09:47:04;29.59;45.83
66861;SHT31;53770;42.334;23.550;2022-07-06T09:49:31;29.61;43.89
66861;SHT31;53770;42.334;23.550;2022-07-06T09:52:00;29.97;42.91
66861;SHT31;53770;42.334;23.550;2022-07-06T09:54:27;29.75;40.77
66861;SHT31;53770;42.334;23.550;2022-07-06T09:56:55;29.59;41.66
66861;SHT31;53770;42.334;23.550;2022-07-06T09:59:23;29.10;44.61
66861;SHT31;53770;42.334;23.550;2022-07-06T10:01:51;28.96;44.88
66861;SHT31;53770;42.334;23.550;2022-07-06T10:04:20;28.89;43.32
66861;SHT31;53770;42.334;23.550;2022-07-06T10:06:47;28.62;44.38
66861;SHT31;53770;42.334;23.550;2022-07-06T10:09:16;28.76;43.86
66861;SHT31;53770;42.334;23.550;2022-07-06T10:11:48;28.69;45.70
66861;SHT31;53770;42.334;23.550;2022-07-06T10:14:18;29.39;45.50
66861;SHT31;53770;42.334;23.550;2022-07-06T10:16:46;30.32;42.69
66861;SHT31;53770;42.334;23.550;2022-07-06T10:19:14;31.23;41.90
66861;SHT31;53770;42.334;23.550;2022-07-06T10:21:41;32.80;39.96
66861;SHT31;53770;42.334;23.550;2022-07-06T10:24:09;34.22;36.80
66861;SHT31;53770;42.334;23.550;2022-07-06T10:26:38;34.70;33.44
66861;SHT31;53770;42.334;23.550;2022-07-06T10:29:06;34.83;34.91
66861;SHT31;53770;42.334;23.550;2022-07-06T10:31:36;35.58;33.93
66861;SHT31;53770;42.334;23.550;2022-07-06T10:34:06;36.05;33.11
66861;SHT31;53770;42.334;23.550;2022-07-06T10:36:37;38.03;31.33
66861;SHT31;53770;42.334;23.550;2022-07-06T10:39:04;39.17;28.92
66861;SHT31;53770;42.334;23.550;2022-07-06T10:41:53;39.02;28.29
66861;SHT31;53770;42.334;23.550;2022-07-06T10:44:21;39.31;28.74
66861;SHT31;53770;42.334;23.550;2022-07-06T10:46:51;38.62;30.02
66861;SHT31;53770;42.334;23.550;2022-07-06T10:49:18;37.07;31.89
66861;SHT31;53770;42.334;23.550;2022-07-06T10:51:46;36.29;32.81
66861;SHT31;53770;42.334;23.550;2022-07-06T10:54:15;36.32;33.29
66861;SHT31;53770;42.334;23.550;2022-07-06T10:56:44;36.16;32.44
66861;SHT31;53770;42.334;23.550;2022-07-06T10:59:13;36.77;32.18
66861;SHT31;53770;42.334;23.550;2022-07-06T11:01:40;37.63;31.10
66861;SHT31;53770;42.334;23.550;2022-07-06T11:04:09;38.93;29.34
66861;SHT31;53770;42.334;23.550;2022-07-06T11:06:37;40.17;27.99
66861;SHT31;53770;42.334;23.550;2022-07-06T11:09:05;40.99;27.18
66861;SHT31;53770;42.334;23.550;2022-07-06T11:11:40;41.97;26.17
66861;SHT31;53770;42.334;23.550;2022-07-06T11:14:10;42.60;24.21
66861;SHT31;53770;42.334;23.550;2022-07-06T11:16:40;42.87;25.14
66861;SHT31;53770;42.334;23.550;2022-07-06T11:19:11;43.24;24.16
66861;SHT31;53770;42.334;23.550;2022-07-06T11:21:41;44.13;23.39
66861;SHT31;53770;42.334;23.550;2022-07-06T11:24:12;43.59;23.32
66861;SHT31;53770;42.334;23.550;2022-07-06T11:26:39;43.29;24.37
66861;SHT31;53770;42.334;23.550;2022-07-06T11:29:07;43.66;24.13
66861;SHT31;53770;42.334;23.550;2022-07-06T11:31:35;42.66;24.71
66861;SHT31;53770;42.334;23.550;2022-07-06T11:34:05;42.17;25.02
66861;SHT31;53770;42.334;23.550;2022-07-06T11:36:32;43.48;23.67
66861;SHT31;53770;42.334;23.550;2022-07-06T11:38:59;44.88;22.16
66861;SHT31;53770;42.334;23.550;2022-07-06T11:41:26;45.94;21.41
66861;SHT31;53770;42.334;23.550;2022-07-06T11:43:53;46.68;20.77
66861;SHT31;53770;42.334;23.550;2022-07-06T11:46:20;46.76;21.32
66861;SHT31;53770;42.334;23.550;2022-07-06T11:48:48;46.08;20.07
66861;SHT31;53770;42.334;23.550;2022-07-06T11:51:16;44.92;21.50
66861;SHT31;53770;42.334;23.550;2022-07-06T11:53:44;44.43;22.70
66861;SHT31;53770;42.334;23.550;2022-07-06T11:56:12;43.61;22.14
66861;SHT31;53770;42.334;23.550;2022-07-06T11:58:39;41.63;24.72
66861;SHT31;53770;42.334;23.550;2022-07-06T12:01:09;42.12;24.76
66861;SHT31;53770;42.334;23.550;2022-07-06T12:03:36;43.19;22.48
66861;SHT31;53770;42.334;23.550;2022-07-06T12:06:04;43.24;23.24
66861;SHT31;53770;42.334;23.550;2022-07-06T12:08:40;43.99;22.32
66861;SHT31;53770;42.334;23.550;2022-07-06T12:11:08;44.85;22.33
66861;SHT31;53770;42.334;23.550;2022-07-06T12:13:36;45.08;21.80
66861;SHT31;53770;42.334;23.550;2022-07-06T12:16:09;45.29;21.85
66861;SHT31;53770;42.334;23.550;2022-07-06T12:18:37;45.87;21.33
66861;SHT31;53770;42.334;23.550;2022-07-06T12:21:04;46.65;20.63
66861;SHT31;53770;42.334;23.550;2022-07-06T12:23:41;46.28;20.17
66861;SHT31;53770;42.334;23.550;2022-07-06T12:26:09;46.48;21.08
66861;SHT31;53770;42.334;23.550;2022-07-06T12:28:36;47.27;20.21
66861;SHT31;53770;42.334;23.550;2022-07-06T12:31:03;47.64;19.92
66861;SHT31;53770;42.334;23.550;2022-07-06T12:33:30;47.88;20.31
66861;SHT31;53770;42.334;23.550;2022-07-06T12:36:07;46.00;20.94
66861;SHT31;53770;42.334;23.550;2022-07-06T12:38:35;44.51;22.72
66861;SHT31;53770;42.334;23.550;2022-07-06T12:41:03;45.93;21.84
66861;SHT31;53770;42.334;23.550;2022-07-06T12:43:37;44.91;21.48
66861;SHT31;53770;42.334;23.550;2022-07-06T12:46:22;44.99;22.32
66861;SHT31;53770;42.334;23.550;2022-07-06T12:48:52;44.09;22.85
66861;SHT31;53770;42.334;23.550;2022-07-06T12:51:19;43.88;23.37
66861;SHT31;53770;42.334;23.550;2022-07-06T12:53:46;42.63;24.32
66861;SHT31;53770;42.334;23.550;2022-07-06T12:56:14;39.62;26.56
66861;SHT31;53770;42.334;23.550;2022-07-06T12:58:57;36.27;30.71
66861;SHT31;53770;42.334;23.550;2022-07-06T13:01:24;34.95;33.34
66861;SHT31;53770;42.334;23.550;2022-07-06T13:03:55;34.20;35.38
66861;SHT31;53770;42.334;23.550;2022-07-06T13:06:33;34.27;34.37
66861;SHT31;53770;42.334;23.550;2022-07-06T13:09:00;33.98;34.40
66861;SHT31;53770;42.334;23.550;2022-07-06T13:11:28;33.45;34.95
66861;SHT31;53770;42.334;23.550;2022-07-06T13:13:54;32.92;35.81
66861;SHT31;53770;42.334;23.550;2022-07-06T13:16:21;32.53;37.03
66861;SHT31;53770;42.334;23.550;2022-07-06T13:18:53;32.20;37.13
66861;SHT31;53770;42.334;23.550;2022-07-06T13:21:20;31.85;37.44
66861;SHT31;53770;42.334;23.550;2022-07-06T13:23:47;31.62;38.26
66861;SHT31;53770;42.334;23.550;2022-07-06T13:26:13;31.50;38.88
66861;SHT31;53770;42.334;23.550;2022-07-06T13:28:42;31.40;38.90
66861;SHT31;53770;42.334;23.550;2022-07-06T13:31:08;31.23;38.96
66861;SHT31;53770;42.334;23.550;2022-07-06T13:33:35;30.88;39.99
66861;SHT31;53770;42.334;23.550;2022-07-06T13:36:02;30.42;40.58
66861;SHT31;53770;42.334;23.550;2022-07-06T13:38:29;30.20;40.93
66861;SHT31;53770;42.334;23.550;2022-07-06T13:40:56;30.17;40.67
66861;SHT31;53770;42.334;23.550;2022-07-06T13:43:23;30.35;40.79
66861;SHT31;53770;42.334;23.550;2022-07-06T13:45:51;31.00;40.15
66861;SHT31;53770;42.334;23.550;2022-07-06T13:48:18;31.43;38.31
66861;SHT31;53770;42.334;23.550;2022-07-06T13:50:45;31.33;38.98
66861;SHT31;53770;42.334;23.550;2022-07-06T13:53:11;30.62;39.76
66861;SHT31;53770;42.334;23.550;2022-07-06T13:55:38;29.87;40.53
66861;SHT31;53770;42.334;23.550;2022-07-06T13:58:05;29.41;41.47
66861;SHT31;53770;42.334;23.550;2022-07-06T14:00:32;29.00;41.99
66861;SHT31;53770;42.334;23.550;2022-07-06T14:03:00;28.76;42.50
66861;SHT31;53770;42.334;23.550;2022-07-06T14:05:28;28.60;42.71
66861;SHT31;53770;42.334;23.550;2022-07-06T14:07:56;28.42;43.10
66861;SHT31;53770;42.334;23.550;2022-07-06T14:10:23;28.28;44.52
66861;SHT31;53770;42.334;23.550;2022-07-06T14:12:49;28.28;44.06
66861;SHT31;53770;42.334;23.550;2022-07-06T14:15:16;28.35;43.38
66861;SHT31;53770;42.334;23.550;2022-07-06T14:17:43;28.51;43.43
66861;SHT31;53770;42.334;23.550;2022-07-06T14:20:11;28.90;42.64
66861;SHT31;53770;42.334;23.550;2022-07-06T14:22:38;29.19;42.50
66861;SHT31;53770;42.334;23.550;2022-07-06T14:25:05;29.46;41.94
66861;SHT31;53770;42.334;23.550;2022-07-06T14:27:32;29.72;40.98
66861;SHT31;53770;42.334;23.550;2022-07-06T14:29:59;29.72;42.09
66861;SHT31;53770;42.334;23.550;2022-07-06T14:32:26;29.67;41.72
66861;SHT31;53770;42.334;23.550;2022-07-06T14:34:53;29.48;41.93
66861;SHT31;53770;42.334;23.550;2022-07-06T14:37:21;29.31;42.66
66861;SHT31;53770;42.334;23.550;2022-07-06T14:39:48;29.28;42.26
66861;SHT31;53770;42.334;23.550;2022-07-06T14:42:16;29.12;42.63
66861;SHT31;53770;42.334;23.550;2022-07-06T14:44:43;29.10;43.11
66861;SHT31;53770;42.334;23.550;2022-07-06T14:47:10;29.10;42.82
66861;SHT31;53770;42.334;23.550;2022-07-06T14:49:36;29.07;42.43
66861;SHT31;53770;42.334;23.550;2022-07-06T14:52:04;29.00;43.33
66861;SHT31;53770;42.334;23.550;2022-07-06T14:54:32;29.01;43.01
66861;SHT31;53770;42.334;23.550;2022-07-06T14:56:59;28.97;43.61
66861;SHT31;53770;42.334;23.550;2022-07-06T14:59:27;28.96;43.56
66861;SHT31;53770;42.334;23.550;2022-07-06T15:01:54;28.74;43.86
66861;SHT31;53770;42.334;23.550;2022-07-06T15:04:21;28.51;44.59
66861;SHT31;53770;42.334;23.550;2022-07-06T15:06:48;28.29;45.03
66861;SHT31;53770;42.334;23.550;2022-07-06T15:09:15;28.02;45.82
66861;SHT31;53770;42.334;23.550;2022-07-06T15:11:43;27.54;42.91
66861;SHT31;53770;42.334;23.550;2022-07-06T15:14:10;26.92;46.57
66861;SHT31;53770;42.334;23.550;2022-07-06T15:16:37;26.90;48.35
66861;SHT31;53770;42.334;23.550;2022-07-06T15:19:04;26.88;47.61